메인 페이지
METAR-TAF:

METAR-TAF

공항 :

자헤단 공항

자헤단, 이란

위도: 29-28N, 경도: 060-53E, 고도: 1370m

현재 날씨관측

예보는 1 시간 4분 전, 01:00시(UTC)에 발표되었습니다.
서북서4kt
온도 26°C
습도 17%
기압 1012 hPa
시정 10km 이상
1500m 미만 상공 구름 및 적란운 없음

METAR: OIZH 250100Z 29004KT CAVOK 26/M01 Q1012 A2989

시각: 06:34 (02:04 UTC)

예보

예보는 3 시간 4분 전, 23:00시(UTC)에 발표되었습니다.
예보 대상 시간: 25일 00시부터 26일 06시까지 (UTC)
북북동10kt
시정: 7000m
전환 중
25일 03시부터 25일 05시까지 (UTC)
북북동19kt
일시적
25일 05시부터 25일 16시까지 (UTC)
시정: 3000m
모래
전환 중
25일 21시부터 25일 23시까지 (UTC)
북북서12kt
전환 중
26일 04시부터 26일 06시까지 (UTC)
북북서21kt

TAF: OIZH 242300Z 2500/2606 03005MPS 7000 NSC BECMG 2503/2505 03010MPS TEMPO 2505/2516 3000 SA BECMG 2521/2523 33006MPS BECMG 2604/2606 33011MPS

4,000개 이상의 공항 관측 자료 및 예보 (METAR 및 TAF 보고).

지도상에서 검색 가능한 기상관측소가 노란 점과 빨간 점으로 표시되어 있습니다.

기상관측소 명을 보려면 표시 위로 마우스를 이동하세요.

날씨 관측과 예보를 보려면 클릭하세요.

지도 변경 : 확대하려면 엑스 표시가 있는 녹색 버튼, 축소하려면 빼기 표시가 있는 녹색 버튼, 다음 페이지의 지도를 보려면 녹색 화살표를 클릭하세요.


METAR-TAF: